• Join FlightAware (Why Join?)
  • Login
  • US Flag GB Flag 
15:08 EDT


 

Airport Tracker/Info


-or-


 

Live Flight TrackerFlight Track Log ✈ FDX1347 ✈ 15-May-2013 ✈ KALB - KMEM

Flight Track Log - Related Links

Times and Time Zones

All times are in EDT time to prevent confusion due to time zone crossing. See the FDX1347 flight status page for this flight to view local times or setup timezone preferences in your user account.

Time Position Orientation Groundspeed Altitude Reporting Facility
EDT Latitude Longitude Course Direction KTS MPH feet Rate Location/Type
21:59 42.7278 -73.8081 179° South 159 183 1,300  Level Boston Center
22:00 42.7089 -73.8075 179° South 177 204 2,000 2,700 Climbing Boston Center
22:01 42.6894 -73.8750 249° West 226 260 5,100 2,880 Climbing Boston Center
22:02 42.6989 -73.9375 282° West 241 277 7,500 3,240 Climbing Boston Center
22:03 42.7103 -74.0253 280° West 246 283 11,000 3,000 Climbing Boston Center
22:04 42.7233 -74.1303 280° West 266 306 13,500 2,700 Climbing Boston Center
22:05 42.7400 -74.2692 279° West 323 372 16,500 2,760 Climbing Boston Center
22:06 42.7464 -74.3853 274° West 344 396 19,100 2,460 Climbing Boston Center
22:07 42.7525 -74.5183 274° West 350 403 21,500 1,860 Climbing Boston Center
22:13 42.4370 -75.2960 274° West 413 475 32,100 1,740 Climbing FlightAware
22:13 42.3930 -75.3800 235° Southwest 409 471 33,200 1,800 Climbing FlightAware
22:14 42.3480 -75.4640 234° Southwest 404 465 34,500 1,740 Climbing FlightAware
22:15 42.3040 -75.5450 234° Southwest 399 459 35,700 1,500 Climbing FlightAware
22:15 42.2590 -75.6270 233° Southwest 397 457 36,700 1,320 Climbing FlightAware
22:16 42.2010 -75.7330 234° Southwest 398 458 37,800 1,080 Climbing FlightAware
22:17 42.1590 -75.8080 233° Southwest 394 453 38,500 1,020 Climbing FlightAware
22:17 42.1200 -75.8810 234° Southwest 394 453 39,100 840 Climbing FlightAware
22:18 42.0752 -75.9628 234° Southwest 398 458 39,500 720 Climbing FlightAware ADS-B
22:19 42.0396 -76.0265 233° Southwest 399 459 39,900 420 Climbing FlightAware ADS-B
22:19 42.0047 -76.0901 234° Southwest 399 459 40,000 60 Climbing FlightAware ADS-B
22:20 41.9715 -76.1496 233° Southwest 399 459 40,000  Level FlightAware ADS-B
22:20 41.9360 -76.2133 233° Southwest 400 460 40,000  Level FlightAware ADS-B
22:21 41.9026 -76.2730 233° Southwest 402 463 40,000  Level FlightAware ADS-B
22:21 41.8665 -76.3369 233° Southwest 404 465 40,000  Level FlightAware ADS-B
22:22 41.8325 -76.3972 233° Southwest 405 466 40,000  Level FlightAware ADS-B
22:22 41.7957 -76.4636 233° Southwest 406 467 40,000  Level FlightAware ADS-B
22:23 41.7605 -76.5258 233° Southwest 405 466 40,000  Level FlightAware ADS-B
22:23 41.7202 -76.5979 233° Southwest 406 467 40,000  Level FlightAware ADS-B
22:24 41.6846 -76.6620 233° Southwest 407 468 40,000  Level FlightAware ADS-B
22:24 41.6481 -76.7263 233° Southwest 408 470 40,000  Level FlightAware ADS-B
22:25 41.6131 -76.7866 232° Southwest 410 472 40,000  Level FlightAware ADS-B
22:25 41.5761 -76.8533 233° Southwest 410 472 40,000  Level FlightAware ADS-B
22:26 41.5415 -76.9139 233° Southwest 411 473 40,000  Level FlightAware ADS-B
22:26 41.5064 -76.9743 232° Southwest 411 473 40,000  Level FlightAware ADS-B
22:27 41.4703 -77.0388 233° Southwest 411 473 40,000  Level FlightAware ADS-B
22:27 41.4353 -77.0990 232° Southwest 408 470 40,000  Level FlightAware ADS-B
22:28 41.3989 -77.1628 233° Southwest 407 468 40,000  Level FlightAware ADS-B
22:29 41.3640 -77.2225 232° Southwest 407 468 40,000  Level FlightAware ADS-B
22:29 41.3294 -77.2841 233° Southwest 407 468 40,000  Level FlightAware ADS-B
22:30 41.2920 -77.3476 232° Southwest 406 467 40,000  Level FlightAware ADS-B
22:30 41.2570 -77.4090 233° Southwest 405 466 40,000  Level FlightAware
22:30 41.2301 -77.4543 232° Southwest 406 467 40,000  Level FlightAware ADS-B
22:31 41.1698 -77.5589 233° Southwest 405 466 40,000  Level FlightAware ADS-B
22:32 41.1283 -77.6297 232° Southwest 406 467 40,000  Level FlightAware ADS-B
22:33 41.0724 -77.7261 232° Southwest 406 467 40,000  Level FlightAware ADS-B
22:33 41.0262 -77.8047 232° Southwest 407 468 40,000  Level FlightAware ADS-B
22:34 40.9859 -77.8737 232° Southwest 408 470 40,000  Level FlightAware ADS-B
22:35 40.9276 -77.9723 232° Southwest 410 472 40,000  Level FlightAware ADS-B
22:36 40.8670 -78.0880 235° Southwest 410 472 40,000  Level FlightAware
22:37 40.8250 -78.1710 236° Southwest 412 474 40,000  Level FlightAware
22:37 40.7840 -78.2550 237° Southwest 413 475 40,000  Level FlightAware
22:38 40.7420 -78.3370 236° Southwest 413 475 40,000  Level FlightAware
22:39 40.6980 -78.4230 236° Southwest 415 478 40,000  Level FlightAware
22:39 40.6490 -78.5190 236° Southwest 415 478 40,000  Level FlightAware
22:40 40.5980 -78.6180 236° Southwest 417 480 40,000  Level FlightAware
22:41 40.5540 -78.7040 236° Southwest 417 480 40,000  Level FlightAware
22:41 40.5070 -78.7970 236° Southwest 419 482 40,000  Level FlightAware
22:42 40.4630 -78.8820 236° Southwest 422 486 40,000  Level FlightAware
22:43 40.4110 -78.9820 236° Southwest 424 488 40,000  Level FlightAware
22:43 40.3740 -79.0540 236° Southwest 424 488 40,000  Level FlightAware
22:44 40.3230 -79.1510 235° Southwest 423 487 40,000  Level FlightAware
22:45 40.2740 -79.2450 236° Southwest 423 487 40,000  Level FlightAware
22:46 40.2300 -79.3300 236° Southwest 424 488 40,000  Level FlightAware
22:46 40.1890 -79.4170 238° Southwest 424 488 40,000  Level FlightAware
22:47 40.1460 -79.5150 240° Southwest 422 486 40,000  Level FlightAware
22:48 40.1060 -79.6050 240° Southwest 421 484 40,000  Level FlightAware
22:48 40.0610 -79.7060 240° Southwest 418 481 40,000  Level FlightAware
22:49 40.0220 -79.7930 240° Southwest 418 481 40,000  Level FlightAware
22:50 39.9790 -79.8880 239° Southwest 417 480 40,000  Level FlightAware
22:51 39.9400 -79.9750 240° Southwest 416 479 40,000  Level FlightAware
22:51 39.9010 -80.0590 239° Southwest 416 479 40,000  Level FlightAware
22:52 39.8640 -80.1410 240° Southwest 415 478 40,000  Level FlightAware
22:52 39.8290 -80.2180 239° Southwest 415 478 40,000  Level FlightAware
22:53 39.7810 -80.3210 239° Southwest 415 478 40,000  Level FlightAware
22:54 39.7380 -80.4170 240° Southwest 415 478 40,000  Level FlightAware
22:55 39.6930 -80.5130 239° Southwest 416 479 40,000  Level FlightAware
22:55 39.6510 -80.6030 239° Southwest 417 480 40,000  Level FlightAware
22:56 39.6100 -80.6940 240° Southwest 417 480 40,000  Level FlightAware
22:57 39.5650 -80.7900 239° Southwest 417 480 40,000  Level FlightAware
22:57 39.5310 -80.8630 239° Southwest 418 481 40,000  Level FlightAware
22:58 39.4840 -80.9640 239° Southwest 420 483 40,000  Level FlightAware
22:59 39.4400 -81.0590 239° Southwest 421 484 40,000  Level FlightAware
23:00 39.3990 -81.1450 238° Southwest 421 484 40,000  Level FlightAware
23:00 39.3580 -81.2310 238° Southwest 422 486 40,000  Level FlightAware
23:01 39.3130 -81.3270 239° Southwest 422 486 40,000  Level FlightAware
23:02 39.2720 -81.4140 239° Southwest 423 487 40,000  Level FlightAware
23:02 39.2260 -81.5100 238° Southwest 423 487 40,000  Level FlightAware
23:03 39.1840 -81.5980 238° Southwest 423 487 40,000  Level FlightAware
23:04 39.1520 -81.6630 238° Southwest 422 486 40,000  Level FlightAware
23:05 39.0970 -81.7790 239° Southwest 423 487 40,000  Level FlightAware
23:05 39.0560 -81.8650 238° Southwest 425 489 40,000  Level FlightAware
23:06 39.0100 -81.9590 238° Southwest 425 489 40,000  Level FlightAware
23:07 38.9680 -82.0470 238° Southwest 425 489 40,000  Level FlightAware
23:07 38.9280 -82.1310 239° Southwest 424 488 40,000  Level FlightAware
23:08 38.8790 -82.2310 238° Southwest 424 488 40,000  Level FlightAware
23:09 38.8380 -82.3140 238° Southwest 424 488 40,000  Level FlightAware
23:09 38.7910 -82.4100 238° Southwest 423 487 40,000  Level FlightAware
23:10 38.7500 -82.4930 238° Southwest 423 487 40,000  Level FlightAware
23:11 38.7080 -82.5800 238° Southwest 421 484 40,000  Level FlightAware
23:11 38.6680 -82.6600 237° Southwest 419 482 40,000  Level FlightAware
23:12 38.6220 -82.7510 237° Southwest 419 482 40,000  Level FlightAware
23:13 38.5860 -82.8220 237° Southwest 419 482 40,000  Level FlightAware
23:14 38.5330 -82.9340 239° Southwest 419 482 40,000  Level FlightAware
23:14 38.5028 -82.9919 236° Southwest 419 482 40,000  Level FlightAware ADS-B
23:15 38.4706 -83.0568 238° Southwest 419 482 40,000  Level FlightAware ADS-B
23:15 38.4375 -83.1235 238° Southwest 419 482 40,000  Level FlightAware ADS-B
23:16 38.4010 -83.1960 237° Southwest 419 482 40,000  Level FlightAware
23:16 38.3630 -83.2710 237° Southwest 419 482 40,000  Level FlightAware
23:17 38.3170 -83.3630 238° Southwest 419 482 40,000  Level FlightAware
23:18 38.2810 -83.4330 237° Southwest 419 482 40,000  Level FlightAware
23:18 38.2450 -83.5040 237° Southwest 419 482 40,000  Level FlightAware
23:19 38.1810 -83.6310 237° Southwest 412 474 40,000  Level FlightAware
23:20 38.1290 -83.7330 237° Southwest 410 472 40,000  Level FlightAware
23:21 38.0940 -83.8020 237° Southwest 410 472 40,000  Level FlightAware
23:21 38.0430 -83.9010 237° Southwest 407 468 40,000  Level FlightAware
23:22 38.0020 -83.9810 237° Southwest 406 467 40,000  Level FlightAware
23:23 37.9500 -84.0810 237° Southwest 404 465 40,000  Level FlightAware
23:23 37.9255 -84.1300 238° Southwest 405 466 40,000  Level FlightAware ADS-B
23:24 37.8936 -84.1913 237° Southwest 404 465 40,000  Level FlightAware ADS-B
23:24 37.8600 -84.2567 237° Southwest 404 465 40,000  Level FlightAware ADS-B
23:25 37.8285 -84.3176 237° Southwest 402 463 40,000  Level FlightAware ADS-B
23:25 37.7973 -84.3763 236° Southwest 401 461 40,000  Level FlightAware ADS-B
23:26 37.7418 -84.4833 237° Southwest 399 459 40,000  Level FlightAware ADS-B
23:27 37.7112 -84.5417 236° Southwest 399 459 40,000  Level FlightAware ADS-B
23:27 37.6801 -84.6017 237° Southwest 399 459 40,000  Level FlightAware ADS-B
23:28 37.6485 -84.6619 236° Southwest 398 458 40,000  Level FlightAware ADS-B
23:28 37.6169 -84.7218 236° Southwest 398 458 40,000  Level FlightAware ADS-B
23:29 37.5857 -84.7799 236° Southwest 398 458 40,000  Level FlightAware ADS-B
23:29 37.5531 -84.8417 236° Southwest 398 458 40,000  Level FlightAware ADS-B
23:30 37.5190 -84.9071 237° Southwest 397 457 40,000  Level FlightAware ADS-B
23:31 37.4877 -84.9666 236° Southwest 396 456 40,000  Level FlightAware ADS-B
23:31 37.4571 -85.0240 236° Southwest 395 455 40,000  Level FlightAware ADS-B
23:32 37.4257 -85.0835 236° Southwest 395 455 40,000  Level FlightAware ADS-B
23:32 37.3943 -85.1426 236° Southwest 395 455 40,000  Level FlightAware ADS-B
23:33 37.3635 -85.1999 236° Southwest 394 453 40,000  Level FlightAware ADS-B
23:33 37.3325 -85.2569 236° Southwest 394 453 40,000  Level FlightAware ADS-B
23:34 37.2978 -85.3229 237° Southwest 391 450 40,000  Level FlightAware ADS-B
23:34 37.2613 -85.3907 236° Southwest 391 450 40,000  Level FlightAware ADS-B
23:35 37.2160 -85.4752 236° Southwest 390 449 40,000  Level FlightAware ADS-B
23:35 37.1854 -85.5311 236° Southwest 387 445 40,000  Level FlightAware ADS-B
23:36 37.1545 -85.5886 236° Southwest 386 444 40,000  Level FlightAware ADS-B
23:37 37.1239 -85.6458 236° Southwest 384 442 40,000  Level FlightAware ADS-B
23:37 37.0810 -85.7250 236° Southwest 381 438 40,000  Level FlightAware
23:38 37.0497 -85.7832 236° Southwest 384 442 40,000  Level FlightAware ADS-B
23:39 36.9949 -85.8836 236° Southwest 384 442 40,000  Level FlightAware ADS-B
23:39 36.9633 -85.9410 235° Southwest 384 442 40,000  Level FlightAware ADS-B
23:40 36.9295 -86.0028 236° Southwest 395 455 40,000  Level FlightAware ADS-B
23:40 36.8979 -86.0597 235° Southwest 399 459 40,000  Level FlightAware ADS-B
23:41 36.8640 -86.1228 236° Southwest 403 464 40,000  Level FlightAware ADS-B
23:41 36.8321 -86.1806 235° Southwest 406 467 40,000  Level FlightAware ADS-B
23:42 36.7996 -86.2404 236° Southwest 406 467 40,000  Level FlightAware ADS-B
23:42 36.7625 -86.3063 235° Southwest 407 468 40,000  Level FlightAware ADS-B
23:43 36.7275 -86.3699 236° Southwest 406 467 40,000  Level FlightAware ADS-B
23:44 36.6810 -86.4550 236° Southwest 406 467 40,000  Level FlightAware
23:44 36.6420 -86.5260 236° Southwest 406 467 40,000  Level FlightAware
23:45 36.5990 -86.6030 235° Southwest 406 467 40,000  Level FlightAware
23:46 36.5620 -86.6680 235° Southwest 406 467 40,000  Level FlightAware
23:47 36.5160 -86.7490 235° Southwest 406 467 40,000  Level FlightAware
23:47 36.4790 -86.8140 235° Southwest 406 467 40,000 -1,500 Level FlightAware
23:48 36.4100 -86.9400 236° Southwest 388 447 37,900 -1,920 Descending FlightAware
23:48 36.3810 -86.9910 235° Southwest 390 449 37,600 -600 Descending FlightAware
23:49 36.3270 -87.0860 235° Southwest 398 458 37,100 -660 Descending FlightAware
23:50 36.2910 -87.1520 236° Southwest 401 461 36,700 -540 Descending FlightAware
23:51 36.2380 -87.2430 234° Southwest 404 465 36,400 -240 Descending FlightAware
23:51 36.2010 -87.3070 234° Southwest 404 465 36,400 -840 Level FlightAware
23:52 36.1570 -87.3880 236° Southwest 399 459 35,400 -1,020 Descending FlightAware
23:53 36.1030 -87.4810 234° Southwest 406 467 35,000 -300 Descending FlightAware
23:53 36.0640 -87.5480 234° Southwest 407 468 35,000  Level FlightAware
23:54 36.0270 -87.6120 234° Southwest 407 468 35,000  Level FlightAware
23:55 35.9800 -87.6920 234° Southwest 407 468 35,000  Level FlightAware
23:56 35.9420 -87.7560 234° Southwest 407 468 35,000  Level FlightAware
23:56 35.9040 -87.8200 234° Southwest 407 468 35,000  Level FlightAware
23:57 35.8670 -87.8840 235° Southwest 407 468 35,000  Level FlightAware
23:58 35.8290 -87.9480 234° Southwest 407 468 35,000  Level FlightAware
23:58 35.7820 -88.0280 234° Southwest 407 468 35,000  Level FlightAware
23:59 35.7440 -88.0920 234° Southwest 407 468 35,000  Level FlightAware
00:00 35.7070 -88.1550 234° Southwest 407 468 35,000  Level FlightAware
00:00 35.6690 -88.2190 234° Southwest 407 468 35,000  Level FlightAware
00:01 35.6320 -88.2830 235° Southwest 407 468 35,000  Level FlightAware
00:02 35.5940 -88.3470 234° Southwest 407 468 35,000  Level FlightAware
00:03 35.5470 -88.4260 234° Southwest 407 468 35,000 -7,680 Level FlightAware
00:04 35.3197 -88.7081 234° Southwest 381 438 19,400 -8,580 Descending Memphis Center
00:05 35.2583 -88.8033 232° Southwest 361 415 16,200 -3,300 Descending Memphis Center
00:06 35.1969 -88.8986 232° Southwest 361 415 12,800 -2,820 Descending Memphis Center
00:07 35.1456 -88.9781 232° Southwest 350 403 10,600 -1,320 Descending Memphis Center
00:08 35.0986 -89.0525 232° Southwest 313 360 10,200 -840 Descending Memphis Center
00:09 35.0511 -89.1242 231° Southwest 284 327 9,000 -1,260 Descending Memphis Center
00:10 35.0375 -89.2158 260° West 267 307 7,700 -1,260 Descending Memphis Center
00:11 35.0403 -89.3019 272° West 262 302 6,500 -900 Descending Memphis Center
00:12 35.0431 -89.3756 273° West 238 274 6,000 -300 Descending Memphis Center
00:13 35.0458 -89.4492 273° West 219 252 6,000 -420 Level Memphis Center
00:14 35.0483 -89.5225 272° West 219 252 5,200 -780 Descending Memphis Center
00:15 35.0508 -89.6011 272° West 214 246 4,500 -900 Descending Memphis Center
00:16 35.0514 -89.6722 271° West 214 246 3,500 -780 Descending Memphis Center
00:17 35.0539 -89.7458 272° West 214 246 3,000 -420 Descending Memphis Center
00:18 35.0561 -89.8142 272° West 214 246 2,700 -540 Descending Memphis Center
00:19 35.0564 -89.8650 270° West 182 209 2,000 -780 Descending Memphis Center
00:19 35.0500 -89.8833 247° West 104 120 1,600 -720 Descending KMEM
00:20 35.0500 -89.9167 270° West 117 135 900 -660 Descending KMEM
00:23 35.0333 -89.9667 270° West  Level FlightAware Approximate